sensor_id;sensor_type;location;lat;lon;timestamp;P1;durP1;ratioP1;P2;durP2;ratioP2
48809;SDS011;40070;47.322;18.784;2023-04-24T00:01:24;7.01;;;3.10;;
48809;SDS011;40070;47.322;18.784;2023-04-24T00:03:25;6.02;;;2.80;;
48809;SDS011;40070;47.322;18.784;2023-04-24T00:05:25;7.80;;;3.70;;
48809;SDS011;40070;47.322;18.784;2023-04-24T00:07:26;6.80;;;3.10;;
48809;SDS011;40070;47.322;18.784;2023-04-24T00:09:27;7.89;;;3.40;;
48809;SDS011;40070;47.322;18.784;2023-04-24T00:11:28;7.28;;;3.39;;
48809;SDS011;40070;47.322;18.784;2023-04-24T00:13:29;8.47;;;3.20;;
48809;SDS011;40070;47.322;18.784;2023-04-24T00:15:30;8.87;;;3.30;;
48809;SDS011;40070;47.322;18.784;2023-04-24T00:17:31;6.00;;;3.20;;
48809;SDS011;40070;47.322;18.784;2023-04-24T00:19:32;7.08;;;3.39;;
48809;SDS011;40070;47.322;18.784;2023-04-24T00:21:33;6.88;;;3.29;;
48809;SDS011;40070;47.322;18.784;2023-04-24T00:23:34;9.04;;;3.29;;
48809;SDS011;40070;47.322;18.784;2023-04-24T00:25:36;6.79;;;3.00;;
48809;SDS011;40070;47.322;18.784;2023-04-24T00:27:37;6.58;;;3.39;;
48809;SDS011;40070;47.322;18.784;2023-04-24T00:29:38;7.38;;;3.49;;
48809;SDS011;40070;47.322;18.784;2023-04-24T00:31:39;7.37;;;3.49;;
48809;SDS011;40070;47.322;18.784;2023-04-24T00:33:40;7.56;;;3.19;;
48809;SDS011;40070;47.322;18.784;2023-04-24T00:35:41;6.79;;;3.29;;
48809;SDS011;40070;47.322;18.784;2023-04-24T00:37:42;6.59;;;3.00;;
48809;SDS011;40070;47.322;18.784;2023-04-24T00:39:43;7.75;;;3.49;;
48809;SDS011;40070;47.322;18.784;2023-04-24T00:41:44;6.88;;;3.49;;
48809;SDS011;40070;47.322;18.784;2023-04-24T00:43:45;6.67;;;3.19;;
48809;SDS011;40070;47.322;18.784;2023-04-24T00:45:46;11.28;;;3.29;;
48809;SDS011;40070;47.322;18.784;2023-04-24T00:47:47;8.12;;;3.79;;
48809;SDS011;40070;47.322;18.784;2023-04-24T00:49:48;8.30;;;3.59;;
48809;SDS011;40070;47.322;18.784;2023-04-24T00:51:49;7.01;;;3.39;;
48809;SDS011;40070;47.322;18.784;2023-04-24T00:53:50;9.19;;;3.29;;
48809;SDS011;40070;47.322;18.784;2023-04-24T00:55:51;6.57;;;3.19;;
48809;SDS011;40070;47.322;18.784;2023-04-24T00:57:52;7.14;;;3.68;;
48809;SDS011;40070;47.322;18.784;2023-04-24T00:59:53;6.05;;;3.58;;
48809;SDS011;40070;47.322;18.784;2023-04-24T01:01:54;6.92;;;3.58;;
48809;SDS011;40070;47.322;18.784;2023-04-24T01:03:59;8.50;;;4.07;;
48809;SDS011;40070;47.322;18.784;2023-04-24T01:06:00;9.69;;;4.36;;
48809;SDS011;40070;47.322;18.784;2023-04-24T01:08:01;9.78;;;4.26;;
48809;SDS011;40070;47.322;18.784;2023-04-24T01:10:04;7.56;;;4.16;;
48809;SDS011;40070;47.322;18.784;2023-04-24T01:12:04;10.31;;;4.06;;
48809;SDS011;40070;47.322;18.784;2023-04-24T01:14:05;7.67;;;4.16;;
48809;SDS011;40070;47.322;18.784;2023-04-24T01:16:06;7.58;;;3.96;;
48809;SDS011;40070;47.322;18.784;2023-04-24T01:18:07;8.16;;;4.26;;
48809;SDS011;40070;47.322;18.784;2023-04-24T01:20:09;8.06;;;4.16;;
48809;SDS011;40070;47.322;18.784;2023-04-24T01:22:10;6.54;;;3.77;;
48809;SDS011;40070;47.322;18.784;2023-04-24T01:24:12;6.08;;;3.57;;
48809;SDS011;40070;47.322;18.784;2023-04-24T01:26:14;8.25;;;4.06;;
48809;SDS011;40070;47.322;18.784;2023-04-24T01:28:14;6.59;;;3.96;;
48809;SDS011;40070;47.322;18.784;2023-04-24T01:30:15;11.02;;;4.75;;
48809;SDS011;40070;47.322;18.784;2023-04-24T01:32:16;6.42;;;3.76;;
48809;SDS011;40070;47.322;18.784;2023-04-24T01:34:17;7.43;;;3.76;;
48809;SDS011;40070;47.322;18.784;2023-04-24T01:36:19;7.39;;;3.76;;
48809;SDS011;40070;47.322;18.784;2023-04-24T01:38:20;8.06;;;3.96;;
48809;SDS011;40070;47.322;18.784;2023-04-24T01:40:21;6.89;;;3.46;;
48809;SDS011;40070;47.322;18.784;2023-04-24T01:42:22;7.57;;;4.36;;
48809;SDS011;40070;47.322;18.784;2023-04-24T01:44:24;7.46;;;3.96;;
48809;SDS011;40070;47.322;18.784;2023-04-24T01:46:26;7.51;;;3.57;;
48809;SDS011;40070;47.322;18.784;2023-04-24T01:48:27;8.15;;;4.06;;
48809;SDS011;40070;47.322;18.784;2023-04-24T01:50:28;9.20;;;4.36;;
48809;SDS011;40070;47.322;18.784;2023-04-24T01:52:29;6.65;;;3.77;;
48809;SDS011;40070;47.322;18.784;2023-04-24T01:54:30;8.28;;;4.17;;
48809;SDS011;40070;47.322;18.784;2023-04-24T01:56:33;6.09;;;3.57;;
48809;SDS011;40070;47.322;18.784;2023-04-24T01:58:32;6.78;;;3.97;;
48809;SDS011;40070;47.322;18.784;2023-04-24T02:00:37;6.28;;;3.37;;
48809;SDS011;40070;47.322;18.784;2023-04-24T02:02:41;7.89;;;3.97;;
48809;SDS011;40070;47.322;18.784;2023-04-24T02:04:39;9.75;;;3.96;;
48809;SDS011;40070;47.322;18.784;2023-04-24T02:06:40;7.10;;;3.86;;
48809;SDS011;40070;47.322;18.784;2023-04-24T02:08:41;7.48;;;3.76;;
48809;SDS011;40070;47.322;18.784;2023-04-24T02:10:42;10.52;;;4.26;;
48809;SDS011;40070;47.322;18.784;2023-04-24T02:12:43;7.66;;;3.66;;
48809;SDS011;40070;47.322;18.784;2023-04-24T02:14:43;7.47;;;4.16;;
48809;SDS011;40070;47.322;18.784;2023-04-24T02:16:44;5.90;;;3.67;;
48809;SDS011;40070;47.322;18.784;2023-04-24T02:18:45;6.32;;;3.68;;
48809;SDS011;40070;47.322;18.784;2023-04-24T02:20:46;7.63;;;3.57;;
48809;SDS011;40070;47.322;18.784;2023-04-24T02:22:47;8.75;;;3.97;;
48809;SDS011;40070;47.322;18.784;2023-04-24T02:24:48;7.75;;;3.48;;
48809;SDS011;40070;47.322;18.784;2023-04-24T02:26:49;5.65;;;3.18;;
48809;SDS011;40070;47.322;18.784;2023-04-24T02:28:51;6.89;;;3.28;;
48809;SDS011;40070;47.322;18.784;2023-04-24T02:30:51;6.61;;;3.58;;
48809;SDS011;40070;47.322;18.784;2023-04-24T02:32:52;6.89;;;3.58;;
48809;SDS011;40070;47.322;18.784;2023-04-24T02:34:53;8.32;;;3.48;;
48809;SDS011;40070;47.322;18.784;2023-04-24T02:36:54;7.34;;;3.47;;
48809;SDS011;40070;47.322;18.784;2023-04-24T02:38:55;6.67;;;3.47;;
48809;SDS011;40070;47.322;18.784;2023-04-24T02:40:56;5.95;;;3.68;;
48809;SDS011;40070;47.322;18.784;2023-04-24T02:42:57;8.38;;;3.78;;
48809;SDS011;40070;47.322;18.784;2023-04-24T02:44:58;8.09;;;3.68;;
48809;SDS011;40070;47.322;18.784;2023-04-24T02:46:58;7.41;;;3.78;;
48809;SDS011;40070;47.322;18.784;2023-04-24T02:48:59;7.00;;;3.68;;
48809;SDS011;40070;47.322;18.784;2023-04-24T02:51:00;10.13;;;3.57;;
48809;SDS011;40070;47.322;18.784;2023-04-24T02:53:01;6.79;;;3.97;;
48809;SDS011;40070;47.322;18.784;2023-04-24T02:55:02;7.37;;;3.77;;
48809;SDS011;40070;47.322;18.784;2023-04-24T02:57:03;7.00;;;3.58;;
48809;SDS011;40070;47.322;18.784;2023-04-24T02:59:04;7.31;;;3.48;;
48809;SDS011;40070;47.322;18.784;2023-04-24T03:01:05;7.49;;;3.98;;
48809;SDS011;40070;47.322;18.784;2023-04-24T03:03:06;7.60;;;3.88;;
48809;SDS011;40070;47.322;18.784;2023-04-24T03:05:07;6.35;;;3.38;;
48809;SDS011;40070;47.322;18.784;2023-04-24T03:07:08;7.20;;;3.88;;
48809;SDS011;40070;47.322;18.784;2023-04-24T03:09:09;6.09;;;3.38;;
48809;SDS011;40070;47.322;18.784;2023-04-24T03:11:09;9.27;;;4.28;;
48809;SDS011;40070;47.322;18.784;2023-04-24T03:13:10;9.81;;;3.78;;
48809;SDS011;40070;47.322;18.784;2023-04-24T03:15:11;8.53;;;3.68;;
48809;SDS011;40070;47.322;18.784;2023-04-24T03:17:12;8.38;;;3.88;;
48809;SDS011;40070;47.322;18.784;2023-04-24T03:19:13;8.51;;;3.98;;
48809;SDS011;40070;47.322;18.784;2023-04-24T03:21:16;8.96;;;3.98;;
48809;SDS011;40070;47.322;18.784;2023-04-24T03:23:17;6.19;;;3.98;;
48809;SDS011;40070;47.322;18.784;2023-04-24T03:25:18;9.18;;;4.28;;
48809;SDS011;40070;47.322;18.784;2023-04-24T03:27:19;5.87;;;3.48;;
48809;SDS011;40070;47.322;18.784;2023-04-24T03:29:20;6.46;;;3.38;;
48809;SDS011;40070;47.322;18.784;2023-04-24T03:31:20;4.82;;;2.59;;
48809;SDS011;40070;47.322;18.784;2023-04-24T03:33:21;7.22;;;3.38;;
48809;SDS011;40070;47.322;18.784;2023-04-24T03:35:22;6.85;;;3.38;;
48809;SDS011;40070;47.322;18.784;2023-04-24T03:37:23;7.61;;;3.38;;
48809;SDS011;40070;47.322;18.784;2023-04-24T03:39:24;6.27;;;2.99;;
48809;SDS011;40070;47.322;18.784;2023-04-24T03:41:25;8.88;;;3.58;;
48809;SDS011;40070;47.322;18.784;2023-04-24T03:43:26;5.98;;;3.28;;
48809;SDS011;40070;47.322;18.784;2023-04-24T03:45:27;6.27;;;3.38;;
48809;SDS011;40070;47.322;18.784;2023-04-24T03:47:29;9.19;;;3.39;;
48809;SDS011;40070;47.322;18.784;2023-04-24T03:49:29;7.04;;;3.38;;
48809;SDS011;40070;47.322;18.784;2023-04-24T03:51:30;5.78;;;3.28;;
48809;SDS011;40070;47.322;18.784;2023-04-24T03:53:31;6.43;;;3.18;;
48809;SDS011;40070;47.322;18.784;2023-04-24T03:55:32;6.06;;;3.48;;
48809;SDS011;40070;47.322;18.784;2023-04-24T03:57:33;9.53;;;3.38;;
48809;SDS011;40070;47.322;18.784;2023-04-24T03:59:34;7.70;;;3.18;;
48809;SDS011;40070;47.322;18.784;2023-04-24T04:01:35;5.48;;;3.18;;
48809;SDS011;40070;47.322;18.784;2023-04-24T04:03:36;7.80;;;3.48;;
48809;SDS011;40070;47.322;18.784;2023-04-24T04:05:37;7.35;;;3.19;;
48809;SDS011;40070;47.322;18.784;2023-04-24T04:07:38;6.18;;;3.09;;
48809;SDS011;40070;47.322;18.784;2023-04-24T04:09:39;9.26;;;3.58;;
48809;SDS011;40070;47.322;18.784;2023-04-24T04:11:39;6.45;;;3.18;;
48809;SDS011;40070;47.322;18.784;2023-04-24T04:13:40;8.37;;;3.48;;
48809;SDS011;40070;47.322;18.784;2023-04-24T04:15:41;7.99;;;3.58;;
48809;SDS011;40070;47.322;18.784;2023-04-24T04:17:42;7.90;;;3.28;;
48809;SDS011;40070;47.322;18.784;2023-04-24T04:19:43;6.28;;;2.99;;
48809;SDS011;40070;47.322;18.784;2023-04-24T04:21:44;6.86;;;2.99;;
48809;SDS011;40070;47.322;18.784;2023-04-24T04:23:45;7.14;;;3.78;;
48809;SDS011;40070;47.322;18.784;2023-04-24T04:25:46;7.13;;;3.48;;
48809;SDS011;40070;47.322;18.784;2023-04-24T04:27:47;7.98;;;3.88;;
48809;SDS011;40070;47.322;18.784;2023-04-24T04:29:48;7.33;;;3.78;;
48809;SDS011;40070;47.322;18.784;2023-04-24T04:31:50;5.97;;;2.98;;
48809;SDS011;40070;47.322;18.784;2023-04-24T04:33:51;6.27;;;3.28;;
48809;SDS011;40070;47.322;18.784;2023-04-24T04:35:52;6.93;;;3.58;;
48809;SDS011;40070;47.322;18.784;2023-04-24T04:37:53;10.64;;;3.88;;
48809;SDS011;40070;47.322;18.784;2023-04-24T04:39:54;8.38;;;3.18;;
48809;SDS011;40070;47.322;18.784;2023-04-24T04:41:55;7.03;;;3.78;;
48809;SDS011;40070;47.322;18.784;2023-04-24T04:43:56;6.16;;;3.18;;
48809;SDS011;40070;47.322;18.784;2023-04-24T04:45:57;5.49;;;3.08;;
48809;SDS011;40070;47.322;18.784;2023-04-24T04:47:58;5.99;;;2.99;;
48809;SDS011;40070;47.322;18.784;2023-04-24T04:49:59;7.04;;;3.28;;
48809;SDS011;40070;47.322;18.784;2023-04-24T04:52:00;5.49;;;3.28;;
48809;SDS011;40070;47.322;18.784;2023-04-24T04:54:01;8.00;;;3.48;;
48809;SDS011;40070;47.322;18.784;2023-04-24T04:56:02;6.83;;;3.38;;
48809;SDS011;40070;47.322;18.784;2023-04-24T04:58:03;5.87;;;2.98;;
48809;SDS011;40070;47.322;18.784;2023-04-24T05:00:04;8.44;;;3.78;;
48809;SDS011;40070;47.322;18.784;2023-04-24T05:02:05;6.21;;;3.38;;
48809;SDS011;40070;47.322;18.784;2023-04-24T05:04:06;7.57;;;3.48;;
48809;SDS011;40070;47.322;18.784;2023-04-24T05:06:07;6.24;;;3.28;;
48809;SDS011;40070;47.322;18.784;2023-04-24T05:08:08;6.61;;;3.28;;
48809;SDS011;40070;47.322;18.784;2023-04-24T05:10:09;7.47;;;3.68;;
48809;SDS011;40070;47.322;18.784;2023-04-24T05:12:10;7.29;;;3.78;;
48809;SDS011;40070;47.322;18.784;2023-04-24T05:14:11;10.56;;;3.58;;
48809;SDS011;40070;47.322;18.784;2023-04-24T05:16:12;10.29;;;4.57;;
48809;SDS011;40070;47.322;18.784;2023-04-24T05:18:13;7.79;;;3.68;;
48809;SDS011;40070;47.322;18.784;2023-04-24T05:20:14;8.63;;;3.58;;
48809;SDS011;40070;47.322;18.784;2023-04-24T05:22:15;7.56;;;3.58;;
48809;SDS011;40070;47.322;18.784;2023-04-24T05:24:15;7.26;;;3.28;;
48809;SDS011;40070;47.322;18.784;2023-04-24T05:26:16;6.61;;;3.48;;
48809;SDS011;40070;47.322;18.784;2023-04-24T05:28:17;7.87;;;3.98;;
48809;SDS011;40070;47.322;18.784;2023-04-24T05:30:18;8.14;;;3.48;;
48809;SDS011;40070;47.322;18.784;2023-04-24T05:32:19;11.46;;;4.28;;
48809;SDS011;40070;47.322;18.784;2023-04-24T05:34:20;7.43;;;4.38;;
48809;SDS011;40070;47.322;18.784;2023-04-24T05:36:21;7.25;;;3.88;;
48809;SDS011;40070;47.322;18.784;2023-04-24T05:38:22;8.21;;;3.58;;
48809;SDS011;40070;47.322;18.784;2023-04-24T05:40:23;6.27;;;3.48;;
48809;SDS011;40070;47.322;18.784;2023-04-24T05:42:24;7.22;;;3.68;;
48809;SDS011;40070;47.322;18.784;2023-04-24T05:44:25;6.13;;;3.18;;
48809;SDS011;40070;47.322;18.784;2023-04-24T05:46:26;7.17;;;3.77;;
48809;SDS011;40070;47.322;18.784;2023-04-24T05:48:27;6.13;;;2.98;;
48809;SDS011;40070;47.322;18.784;2023-04-24T05:50:27;12.37;;;3.58;;
48809;SDS011;40070;47.322;18.784;2023-04-24T05:52:28;6.51;;;3.58;;
48809;SDS011;40070;47.322;18.784;2023-04-24T05:54:29;7.54;;;3.67;;
48809;SDS011;40070;47.322;18.784;2023-04-24T05:56:30;7.79;;;3.57;;
48809;SDS011;40070;47.322;18.784;2023-04-24T05:58:31;7.49;;;3.57;;
48809;SDS011;40070;47.322;18.784;2023-04-24T06:00:32;7.85;;;4.16;;
48809;SDS011;40070;47.322;18.784;2023-04-24T06:02:33;11.44;;;4.26;;
48809;SDS011;40070;47.322;18.784;2023-04-24T06:04:34;7.86;;;3.77;;
48809;SDS011;40070;47.322;18.784;2023-04-24T06:06:35;6.90;;;3.47;;
48809;SDS011;40070;47.322;18.784;2023-04-24T06:08:36;8.02;;;3.86;;
48809;SDS011;40070;47.322;18.784;2023-04-24T06:10:37;8.15;;;4.06;;
48809;SDS011;40070;47.322;18.784;2023-04-24T06:12:38;7.77;;;3.67;;
48809;SDS011;40070;47.322;18.784;2023-04-24T06:14:39;9.06;;;3.96;;
48809;SDS011;40070;47.322;18.784;2023-04-24T06:16:41;6.98;;;4.06;;
48809;SDS011;40070;47.322;18.784;2023-04-24T06:18:41;7.51;;;3.67;;
48809;SDS011;40070;47.322;18.784;2023-04-24T06:20:42;6.99;;;3.66;;
48809;SDS011;40070;47.322;18.784;2023-04-24T06:22:43;8.15;;;3.96;;
48809;SDS011;40070;47.322;18.784;2023-04-24T06:24:45;6.92;;;3.77;;
48809;SDS011;40070;47.322;18.784;2023-04-24T06:26:46;6.91;;;3.86;;
48809;SDS011;40070;47.322;18.784;2023-04-24T06:28:47;7.29;;;3.86;;
48809;SDS011;40070;47.322;18.784;2023-04-24T06:30:48;6.91;;;3.67;;
48809;SDS011;40070;47.322;18.784;2023-04-24T06:32:49;8.44;;;3.77;;
48809;SDS011;40070;47.322;18.784;2023-04-24T06:34:53;7.19;;;3.86;;
48809;SDS011;40070;47.322;18.784;2023-04-24T06:36:51;7.84;;;3.56;;
48809;SDS011;40070;47.322;18.784;2023-04-24T06:38:52;8.30;;;3.96;;
48809;SDS011;40070;47.322;18.784;2023-04-24T06:40:53;8.74;;;4.15;;
48809;SDS011;40070;47.322;18.784;2023-04-24T06:42:54;8.49;;;4.16;;
48809;SDS011;40070;47.322;18.784;2023-04-24T06:44:55;8.59;;;3.86;;
48809;SDS011;40070;47.322;18.784;2023-04-24T06:46:56;9.31;;;3.96;;
48809;SDS011;40070;47.322;18.784;2023-04-24T06:48:57;7.81;;;4.06;;
48809;SDS011;40070;47.322;18.784;2023-04-24T06:50:58;8.10;;;4.06;;
48809;SDS011;40070;47.322;18.784;2023-04-24T06:52:59;8.31;;;4.16;;
48809;SDS011;40070;47.322;18.784;2023-04-24T06:55:03;6.30;;;3.36;;
48809;SDS011;40070;47.322;18.784;2023-04-24T06:57:02;7.79;;;3.76;;
48809;SDS011;40070;47.322;18.784;2023-04-24T06:59:02;7.43;;;4.06;;
48809;SDS011;40070;47.322;18.784;2023-04-24T07:01:03;8.08;;;4.55;;
48809;SDS011;40070;47.322;18.784;2023-04-24T07:03:04;7.22;;;4.15;;
48809;SDS011;40070;47.322;18.784;2023-04-24T07:05:05;8.01;;;4.35;;
48809;SDS011;40070;47.322;18.784;2023-04-24T07:07:06;7.09;;;3.96;;
48809;SDS011;40070;47.322;18.784;2023-04-24T07:09:07;7.94;;;4.26;;
48809;SDS011;40070;47.322;18.784;2023-04-24T07:11:08;6.90;;;3.76;;
48809;SDS011;40070;47.322;18.784;2023-04-24T07:13:09;7.54;;;3.76;;
48809;SDS011;40070;47.322;18.784;2023-04-24T07:15:10;8.78;;;3.86;;
48809;SDS011;40070;47.322;18.784;2023-04-24T07:17:11;10.69;;;4.36;;
48809;SDS011;40070;47.322;18.784;2023-04-24T07:19:12;7.08;;;3.37;;
48809;SDS011;40070;47.322;18.784;2023-04-24T07:21:12;6.15;;;3.37;;
48809;SDS011;40070;47.322;18.784;2023-04-24T07:23:13;7.99;;;3.66;;
48809;SDS011;40070;47.322;18.784;2023-04-24T07:25:17;7.90;;;4.15;;
48809;SDS011;40070;47.322;18.784;2023-04-24T07:27:19;7.96;;;4.26;;
48809;SDS011;40070;47.322;18.784;2023-04-24T07:29:20;9.73;;;4.06;;
48809;SDS011;40070;47.322;18.784;2023-04-24T07:31:21;7.58;;;3.77;;
48809;SDS011;40070;47.322;18.784;2023-04-24T07:33:22;8.93;;;4.35;;
48809;SDS011;40070;47.322;18.784;2023-04-24T07:35:23;8.43;;;4.25;;
48809;SDS011;40070;47.322;18.784;2023-04-24T07:37:24;10.40;;;4.15;;
48809;SDS011;40070;47.322;18.784;2023-04-24T07:39:25;8.35;;;4.45;;
48809;SDS011;40070;47.322;18.784;2023-04-24T07:41:26;9.82;;;4.15;;
48809;SDS011;40070;47.322;18.784;2023-04-24T07:43:27;11.52;;;4.44;;
48809;SDS011;40070;47.322;18.784;2023-04-24T07:45:28;7.41;;;4.15;;
48809;SDS011;40070;47.322;18.784;2023-04-24T07:47:29;7.72;;;3.96;;
48809;SDS011;40070;47.322;18.784;2023-04-24T07:49:30;8.06;;;4.35;;
48809;SDS011;40070;47.322;18.784;2023-04-24T07:51:30;9.28;;;4.54;;
48809;SDS011;40070;47.322;18.784;2023-04-24T07:53:31;7.46;;;4.14;;
48809;SDS011;40070;47.322;18.784;2023-04-24T07:55:33;8.46;;;4.05;;
48809;SDS011;40070;47.322;18.784;2023-04-24T07:57:33;9.59;;;4.65;;
48809;SDS011;40070;47.322;18.784;2023-04-24T07:59:36;9.08;;;4.44;;
48809;SDS011;40070;47.322;18.784;2023-04-24T08:01:37;8.86;;;4.16;;
48809;SDS011;40070;47.322;18.784;2023-04-24T08:03:38;8.11;;;4.16;;
48809;SDS011;40070;47.322;18.784;2023-04-24T08:05:39;8.66;;;4.55;;
48809;SDS011;40070;47.322;18.784;2023-04-24T08:07:40;7.85;;;4.06;;
48809;SDS011;40070;47.322;18.784;2023-04-24T08:09:41;8.79;;;4.56;;
48809;SDS011;40070;47.322;18.784;2023-04-24T08:11:43;8.65;;;3.97;;
48809;SDS011;40070;47.322;18.784;2023-04-24T08:13:43;6.55;;;3.87;;
48809;SDS011;40070;47.322;18.784;2023-04-24T08:15:45;10.50;;;4.07;;
48809;SDS011;40070;47.322;18.784;2023-04-24T08:17:45;8.24;;;4.56;;
48809;SDS011;40070;47.322;18.784;2023-04-24T08:19:46;9.01;;;4.76;;
48809;SDS011;40070;47.322;18.784;2023-04-24T08:21:47;8.68;;;4.37;;
48809;SDS011;40070;47.322;18.784;2023-04-24T08:23:49;7.85;;;4.27;;
48809;SDS011;40070;47.322;18.784;2023-04-24T08:25:49;9.41;;;4.17;;
48809;SDS011;40070;47.322;18.784;2023-04-24T08:27:50;8.22;;;3.77;;
48809;SDS011;40070;47.322;18.784;2023-04-24T08:29:52;8.42;;;4.57;;
48809;SDS011;40070;47.322;18.784;2023-04-24T08:31:52;9.46;;;4.67;;
48809;SDS011;40070;47.322;18.784;2023-04-24T08:33:54;8.24;;;4.17;;
48809;SDS011;40070;47.322;18.784;2023-04-24T08:35:55;7.39;;;3.68;;
48809;SDS011;40070;47.322;18.784;2023-04-24T08:37:57;7.52;;;4.08;;
48809;SDS011;40070;47.322;18.784;2023-04-24T08:39:58;10.13;;;4.38;;
48809;SDS011;40070;47.322;18.784;2023-04-24T08:41:59;8.50;;;4.28;;
48809;SDS011;40070;47.322;18.784;2023-04-24T08:44:01;12.06;;;4.38;;
48809;SDS011;40070;47.322;18.784;2023-04-24T08:46:03;9.81;;;4.48;;
48809;SDS011;40070;47.322;18.784;2023-04-24T08:48:04;9.31;;;4.37;;
48809;SDS011;40070;47.322;18.784;2023-04-24T08:50:07;9.95;;;4.27;;
48809;SDS011;40070;47.322;18.784;2023-04-24T08:52:08;9.00;;;3.67;;
48809;SDS011;40070;47.322;18.784;2023-04-24T08:54:09;8.12;;;4.18;;
48809;SDS011;40070;47.322;18.784;2023-04-24T08:56:12;7.56;;;3.68;;
48809;SDS011;40070;47.322;18.784;2023-04-24T08:58:13;6.83;;;3.59;;
48809;SDS011;40070;47.322;18.784;2023-04-24T09:00:15;6.54;;;3.39;;
48809;SDS011;40070;47.322;18.784;2023-04-24T09:02:18;8.10;;;4.09;;
48809;SDS011;40070;47.322;18.784;2023-04-24T09:04:20;6.84;;;3.19;;
48809;SDS011;40070;47.322;18.784;2023-04-24T09:06:21;8.69;;;3.89;;
48809;SDS011;40070;47.322;18.784;2023-04-24T09:08:26;7.93;;;3.79;;
48809;SDS011;40070;47.322;18.784;2023-04-24T09:10:27;7.45;;;3.29;;
48809;SDS011;40070;47.322;18.784;2023-04-24T09:12:29;6.85;;;3.49;;
48809;SDS011;40070;47.322;18.784;2023-04-24T09:14:30;8.60;;;3.49;;
48809;SDS011;40070;47.322;18.784;2023-04-24T09:16:31;6.57;;;3.49;;
48809;SDS011;40070;47.322;18.784;2023-04-24T09:18:32;12.81;;;4.29;;
48809;SDS011;40070;47.322;18.784;2023-04-24T09:20:33;6.95;;;3.59;;
48809;SDS011;40070;47.322;18.784;2023-04-24T09:22:37;8.03;;;4.09;;
48809;SDS011;40070;47.322;18.784;2023-04-24T09:24:45;9.58;;;4.59;;
48809;SDS011;40070;47.322;18.784;2023-04-24T09:26:46;9.08;;;4.59;;
48809;SDS011;40070;47.322;18.784;2023-04-24T09:28:47;7.91;;;4.39;;
48809;SDS011;40070;47.322;18.784;2023-04-24T09:31:05;8.58;;;4.79;;
48809;SDS011;40070;47.322;18.784;2023-04-24T09:33:15;8.11;;;4.09;;
48809;SDS011;40070;47.322;18.784;2023-04-24T09:35:08;11.04;;;4.29;;
48809;SDS011;40070;47.322;18.784;2023-04-24T09:37:03;10.52;;;4.69;;
48809;SDS011;40070;47.322;18.784;2023-04-24T09:39:08;7.22;;;3.99;;
48809;SDS011;40070;47.322;18.784;2023-04-24T09:41:08;11.49;;;4.19;;
48809;SDS011;40070;47.322;18.784;2023-04-24T09:43:10;9.28;;;4.19;;
48809;SDS011;40070;47.322;18.784;2023-04-24T09:45:12;8.09;;;4.29;;
48809;SDS011;40070;47.322;18.784;2023-04-24T09:47:13;7.58;;;4.09;;
48809;SDS011;40070;47.322;18.784;2023-04-24T09:49:15;6.34;;;3.39;;
48809;SDS011;40070;47.322;18.784;2023-04-24T09:51:17;6.45;;;2.99;;
48809;SDS011;40070;47.322;18.784;2023-04-24T09:53:27;7.81;;;3.69;;
48809;SDS011;40070;47.322;18.784;2023-04-24T09:55:27;7.35;;;3.59;;
48809;SDS011;40070;47.322;18.784;2023-04-24T09:57:28;8.81;;;3.99;;
48809;SDS011;40070;47.322;18.784;2023-04-24T09:59:38;8.13;;;3.69;;
48809;SDS011;40070;47.322;18.784;2023-04-24T10:01:37;6.76;;;3.69;;
48809;SDS011;40070;47.322;18.784;2023-04-24T10:03:38;7.93;;;3.59;;
48809;SDS011;40070;47.322;18.784;2023-04-24T10:05:42;8.45;;;3.59;;
48809;SDS011;40070;47.322;18.784;2023-04-24T10:07:45;7.26;;;3.79;;
48809;SDS011;40070;47.322;18.784;2023-04-24T10:09:47;8.84;;;3.79;;
48809;SDS011;40070;47.322;18.784;2023-04-24T10:11:49;6.08;;;3.19;;
48809;SDS011;40070;47.322;18.784;2023-04-24T10:13:49;8.34;;;3.49;;
48809;SDS011;40070;47.322;18.784;2023-04-24T10:15:51;7.37;;;3.49;;
48809;SDS011;40070;47.322;18.784;2023-04-24T10:17:52;6.98;;;3.19;;
48809;SDS011;40070;47.322;18.784;2023-04-24T10:19:56;6.30;;;3.59;;
48809;SDS011;40070;47.322;18.784;2023-04-24T10:21:57;10.05;;;3.69;;
48809;SDS011;40070;47.322;18.784;2023-04-24T10:23:59;6.69;;;3.10;;
48809;SDS011;40070;47.322;18.784;2023-04-24T10:26:01;6.11;;;3.40;;
48809;SDS011;40070;47.322;18.784;2023-04-24T10:28:03;6.89;;;2.90;;
48809;SDS011;40070;47.322;18.784;2023-04-24T10:30:07;9.28;;;3.50;;
48809;SDS011;40070;47.322;18.784;2023-04-24T10:32:08;5.63;;;2.40;;
48809;SDS011;40070;47.322;18.784;2023-04-24T10:34:10;5.64;;;2.20;;
48809;SDS011;40070;47.322;18.784;2023-04-24T10:36:13;3.76;;;1.40;;
48809;SDS011;40070;47.322;18.784;2023-04-24T10:38:17;4.56;;;1.70;;
48809;SDS011;40070;47.322;18.784;2023-04-24T10:40:19;3.77;;;1.50;;
48809;SDS011;40070;47.322;18.784;2023-04-24T10:42:20;3.77;;;1.70;;
48809;SDS011;40070;47.322;18.784;2023-04-24T10:44:43;3.28;;;1.30;;
48809;SDS011;40070;47.322;18.784;2023-04-24T10:46:44;4.97;;;1.40;;
48809;SDS011;40070;47.322;18.784;2023-04-24T10:48:52;3.28;;;1.40;;
48809;SDS011;40070;47.322;18.784;2023-04-24T10:50:47;3.58;;;1.40;;
48809;SDS011;40070;47.322;18.784;2023-04-24T10:52:48;4.77;;;1.60;;
48809;SDS011;40070;47.322;18.784;2023-04-24T10:54:59;2.98;;;1.10;;
48809;SDS011;40070;47.322;18.784;2023-04-24T10:59:28;3.98;;;1.40;;
48809;SDS011;40070;47.322;18.784;2023-04-24T11:01:30;4.37;;;1.40;;
48809;SDS011;40070;47.322;18.784;2023-04-24T11:03:29;4.17;;;1.80;;
48809;SDS011;40070;47.322;18.784;2023-04-24T11:05:52;3.18;;;1.30;;
48809;SDS011;40070;47.322;18.784;2023-04-24T11:09:36;2.79;;;1.20;;
48809;SDS011;40070;47.322;18.784;2023-04-24T11:12:02;2.69;;;1.20;;
48809;SDS011;40070;47.322;18.784;2023-04-24T11:14:04;3.08;;;1.30;;
48809;SDS011;40070;47.322;18.784;2023-04-24T11:18:21;4.28;;;1.20;;
48809;SDS011;40070;47.322;18.784;2023-04-24T11:20:22;3.98;;;1.20;;
48809;SDS011;40070;47.322;18.784;2023-04-24T11:22:27;3.19;;;1.50;;
48809;SDS011;40070;47.322;18.784;2023-04-24T11:24:29;3.59;;;1.30;;
48809;SDS011;40070;47.322;18.784;2023-04-24T11:26:42;5.38;;;1.50;;
48809;SDS011;40070;47.322;18.784;2023-04-24T11:28:46;3.19;;;1.20;;
48809;SDS011;40070;47.322;18.784;2023-04-24T11:30:50;2.99;;;1.00;;
48809;SDS011;40070;47.322;18.784;2023-04-24T11:33:04;2.89;;;1.30;;
48809;SDS011;40070;47.322;18.784;2023-04-24T11:35:04;3.29;;;1.10;;
48809;SDS011;40070;47.322;18.784;2023-04-24T11:37:04;3.89;;;1.30;;
48809;SDS011;40070;47.322;18.784;2023-04-24T11:39:05;4.09;;;1.40;;
48809;SDS011;40070;47.322;18.784;2023-04-24T11:41:08;4.19;;;1.30;;
48809;SDS011;40070;47.322;18.784;2023-04-24T11:43:12;2.89;;;1.30;;
48809;SDS011;40070;47.322;18.784;2023-04-24T11:45:32;3.59;;;1.30;;
48809;SDS011;40070;47.322;18.784;2023-04-24T11:47:15;4.08;;;1.50;;
48809;SDS011;40070;47.322;18.784;2023-04-24T11:49:16;2.79;;;1.10;;
48809;SDS011;40070;47.322;18.784;2023-04-24T11:51:17;4.68;;;1.20;;
48809;SDS011;40070;47.322;18.784;2023-04-24T11:53:20;3.39;;;1.20;;
48809;SDS011;40070;47.322;18.784;2023-04-24T11:55:24;5.78;;;1.90;;
48809;SDS011;40070;47.322;18.784;2023-04-24T11:57:22;3.58;;;1.50;;
48809;SDS011;40070;47.322;18.784;2023-04-24T11:59:24;3.09;;;1.20;;
48809;SDS011;40070;47.322;18.784;2023-04-24T12:01:28;3.58;;;1.40;;
48809;SDS011;40070;47.322;18.784;2023-04-24T12:03:36;4.28;;;1.30;;
48809;SDS011;40070;47.322;18.784;2023-04-24T12:05:37;3.98;;;1.30;;
48809;SDS011;40070;47.322;18.784;2023-04-24T12:07:41;2.99;;;1.20;;